Time;durP1;ratioP1;P1;durP2;ratioP2;P2;SDS_P1;SDS_P2;PMS_P1;PMS_P2;Temp;Humidity;BMP_temperature;BMP_pressure;BME280_temperature;BME280_humidity;BME280_pressure;Samples;Min_cycle;Max_cycle;Signal;HPM_P1;HPM_P2
2023/01/12 00:01:23;;;;;;;2.40;0.90;;;8.30;99.90;;;;;;5033340;28;20037;-65
2023/01/12 00:03:51;;;;;;;5.60;1.63;;;8.30;99.90;;;;;;5033256;28;20072;-65
2023/01/12 00:06:18;;;;;;;2.55;0.95;;;9.30;99.90;;;;;;5032946;28;20051;-67
2023/01/12 00:08:48;;;;;;;9.50;0.82;;;8.30;99.90;;;;;;5032971;28;20416;-65
2023/01/12 00:11:14;;;;;;;7.25;1.17;;;8.40;99.90;;;;;;5032840;28;20037;-65
2023/01/12 00:13:40;;;;;;;5.63;1.33;;;8.40;99.90;;;;;;5015255;28;20494;-66
2023/01/12 00:18:56;;;;;;;2.23;0.90;;;8.20;99.90;;;;;;5031480;28;20041;-66
2023/01/12 00:21:22;;;;;;;6.05;1.60;;;8.40;99.90;;;;;;5033058;28;20279;-66
2023/01/12 00:23:48;;;;;;;5.40;1.33;;;8.30;99.90;;;;;;5031595;28;20396;-66
2023/01/12 00:26:13;;;;;;;10.65;1.70;;;8.30;99.90;;;;;;5032706;28;20034;-66
2023/01/12 00:28:39;;;;;;;4.78;1.15;;;8.30;99.90;;;;;;5033017;28;20045;-66
2023/01/12 00:31:07;;;;;;;3.53;0.95;;;8.30;99.90;;;;;;5033017;28;20477;-66
2023/01/12 00:33:34;;;;;;;5.95;1.65;;;8.60;99.90;;;;;;5032648;28;20045;-66
2023/01/12 00:36:04;;;;;;;4.40;1.52;;;8.30;99.90;;;;;;5032990;28;20474;-66
2023/01/12 00:38:30;;;;;;;8.73;1.20;;;8.20;99.90;;;;;;5031356;28;20045;-66
2023/01/12 00:40:56;;;;;;;3.60;1.48;;;8.20;99.90;;;;;;5032685;28;20122;-66
2023/01/12 00:46:08;;;;;;;1.95;0.70;;;8.20;99.90;;;;;;5035293;28;20045;-66
2023/01/12 00:48:34;;;;;;;5.75;1.45;;;8.20;99.90;;;;;;5036823;28;20041;-66
2023/01/12 00:51:03;;;;;;;4.55;0.70;;;8.10;99.90;;;;;;5036453;28;20539;-66
2023/01/12 00:53:29;;;;;;;7.53;1.83;;;8.10;99.90;;;;;;5036720;28;20080;-66
2023/01/12 00:56:03;;;;;;;4.93;1.27;;;8.10;99.90;;;;;;5036342;28;20060;-66
2023/01/12 00:58:29;;;;;;;8.35;1.10;;;8.10;99.90;;;;;;5035481;28;20037;-66
2023/01/12 01:01:02;;;;;;;6.50;1.20;;;8.10;99.90;;;;;;5036545;28;20473;-66
2023/01/12 01:03:28;;;;;;;7.13;1.00;;;8.10;99.90;;;;;;5034978;28;20120;-66
2023/01/12 01:06:03;;;;;;;5.43;1.30;;;8.20;99.90;;;;;;5036108;28;20124;-66
2023/01/12 01:08:30;;;;;;;8.80;1.35;;;8.20;99.90;;;;;;5036116;28;20061;-66
2023/01/12 01:11:08;;;;;;;2.55;0.90;;;8.20;99.90;;;;;;5036372;28;20060;-66
2023/01/12 01:13:35;;;;;;;4.25;0.95;;;8.30;99.90;;;;;;5036382;28;20044;-66
2023/01/12 01:16:03;;;;;;;2.50;1.25;;;8.30;99.90;;;;;;5034985;28;20103;-66
2023/01/12 01:18:30;;;;;;;6.78;0.75;;;8.30;99.90;;;;;;5036287;28;20072;-66
2023/01/12 01:20:56;;;;;;;9.25;1.23;;;8.30;99.90;;;;;;5036259;28;20396;-65
2023/01/12 01:23:24;;;;;;;4.85;1.30;;;8.30;99.90;;;;;;5036168;28;20037;-65
2023/01/12 01:25:50;;;;;;;5.53;0.88;;;8.30;99.90;;;;;;5035761;28;20125;-65
2023/01/12 01:28:16;;;;;;;5.15;0.93;;;8.30;99.90;;;;;;5036123;28;20045;-65
2023/01/12 01:30:42;;;;;;;9.60;1.48;;;8.30;99.90;;;;;;5034832;28;20131;-64
2023/01/12 01:33:08;;;;;;;3.50;0.90;;;8.30;99.90;;;;;;5036022;28;20088;-65
2023/01/12 01:35:35;;;;;;;2.53;1.05;;;8.40;99.90;;;;;;5035933;28;20077;-66
2023/01/12 01:38:01;;;;;;;4.82;1.58;;;8.40;99.90;;;;;;5035921;28;20080;-66
2023/01/12 01:40:27;;;;;;;9.43;1.05;;;8.40;99.90;;;;;;5035430;28;20124;-66
2023/01/12 01:42:53;;;;;;;4.95;1.10;;;8.40;99.90;;;;;;5034677;28;20123;-66
2023/01/12 01:45:19;;;;;;;2.65;1.05;;;8.40;99.90;;;;;;5035532;28;20041;-66
2023/01/12 01:47:52;;;;;;;4.22;1.17;;;8.40;99.90;;;;;;5035738;28;20056;-65
2023/01/12 01:50:34;;;;;;;1.00;0.47;;;8.40;99.90;;;;;;5035711;28;20116;-65
2023/01/12 01:53:22;;;;;;;3.47;1.13;;;8.40;99.90;;;;;;5035333;28;20038;-65
2023/01/12 01:55:52;;;;;;;10.32;1.35;;;8.40;99.90;;;;;;5035593;28;20049;-66
2023/01/12 01:58:25;;;;;;;6.13;1.20;;;8.40;99.90;;;;;;5035572;28;20036;-66
2023/01/12 02:00:52;;;;;;;2.45;0.85;;;8.40;99.90;;;;;;5035088;28;20140;-66
2023/01/12 02:03:18;;;;;;;8.77;1.27;;;8.40;99.90;;;;;;5017657;28;20042;-65
2023/01/12 02:05:47;;;;;;;4.18;1.48;;;8.50;99.90;;;;;;5035389;28;20034;-65
2023/01/12 02:08:41;;;;;;;3.38;0.80;;;8.40;99.90;;;;;;5035094;28;20099;-65
2023/01/12 02:16:19;;;;;;;2.78;1.02;;;8.40;99.90;;;;;;5035566;28;20496;-66
2023/01/12 02:16:51;;;;;;;6.22;1.67;;;8.40;99.90;;;;;;5033908;28;20054;-66
2023/01/12 02:19:38;;;;;;;5.40;1.30;;;8.40;99.90;;;;;;5034762;28;20046;-66
2023/01/12 02:22:20;;;;;;;5.88;1.88;;;8.60;99.90;;;;;;5035094;28;20037;-66
2023/01/12 02:25:07;;;;;;;4.75;1.13;;;8.40;99.90;;;;;;5035037;28;20502;-66
2023/01/12 02:28:13;;;;;;;4.88;1.08;;;8.50;99.90;;;;;;5033420;28;20041;-67
2023/01/12 02:30:57;;;;;;;7.38;1.67;;;8.50;99.90;;;;;;5034482;28;20103;-66
2023/01/12 02:33:44;;;;;;;8.70;1.58;;;8.50;99.90;;;;;;5034569;28;20076;-66
2023/01/12 02:36:34;;;;;;;3.38;1.08;;;8.50;99.90;;;;;;5034864;28;20077;-66
2023/01/12 02:39:25;;;;;;;1.30;0.73;;;8.50;99.90;;;;;;5034721;28;20500;-65
2023/01/12 02:45:00;;;;;;;3.72;1.02;;;8.60;99.90;;;;;;5034655;28;20050;-65
2023/01/12 02:47:43;;;;;;;3.10;0.88;;;8.50;99.90;;;;;;5034570;28;20061;-66
2023/01/12 02:50:16;;;;;;;3.83;1.23;;;8.50;99.90;;;;;;5034216;28;20148;-65
2023/01/12 02:52:47;;;;;;;2.55;0.90;;;8.50;99.90;;;;;;5032943;28;20033;-65
2023/01/12 02:55:14;;;;;;;;;;;8.40;99.90;;;;;;5033341;28;20041;-65
2023/01/12 02:57:41;;;;;;;2.97;1.30;;;8.40;99.90;;;;;;5033218;28;19963;-65
2023/01/12 03:00:08;;;;;;;3.55;2.05;;;8.40;99.90;;;;;;5034281;28;20486;-65
2023/01/12 03:02:34;;;;;;;8.43;1.63;;;8.40;99.90;;;;;;5034369;28;20385;-66
2023/01/12 03:05:01;;;;;;;3.67;1.30;;;8.40;99.90;;;;;;5034260;28;20065;-65
2023/01/12 03:07:29;;;;;;;3.35;1.25;;;8.40;99.90;;;;;;5032570;28;20472;-65
2023/01/12 03:10:11;;;;;;;4.05;1.48;;;8.50;99.90;;;;;;5033746;28;20140;-65
2023/01/12 03:12:38;;;;;;;1.05;0.90;;;8.50;99.90;;;;;;5032700;28;20045;-65
2023/01/12 03:15:07;;;;;;;2.33;0.90;;;8.50;99.90;;;;;;5032780;28;20041;-66
2023/01/12 03:17:42;;;;;;;3.35;1.15;;;8.50;99.90;;;;;;5034013;28;20044;-65
2023/01/12 03:20:16;;;;;;;6.85;1.40;;;8.50;99.90;;;;;;5032483;28;20113;-65
2023/01/12 03:22:44;;;;;;;8.93;1.67;;;8.50;99.90;;;;;;5033932;28;20041;-65
2023/01/12 03:25:13;;;;;;;9.07;1.90;;;8.40;99.90;;;;;;5033830;28;20042;-65
2023/01/12 03:27:43;;;;;;;5.85;0.75;;;8.40;99.90;;;;;;5033539;28;20137;-66
2023/01/12 03:30:17;;;;;;;2.15;1.00;;;8.40;99.90;;;;;;5032607;28;20048;-66
2023/01/12 03:32:43;;;;;;;3.55;0.93;;;8.40;99.90;;;;;;5033774;28;20041;-67
2023/01/12 03:35:10;;;;;;;10.48;2.38;;;8.40;99.90;;;;;;5033715;28;20404;-66
2023/01/12 03:37:46;;;;;;;5.80;1.80;;;8.40;99.90;;;;;;5033677;28;20391;-66
2023/01/12 03:40:20;;;;;;;3.80;1.20;;;8.40;99.90;;;;;;5033177;28;20088;-66
2023/01/12 03:43:02;;;;;;;9.70;1.40;;;8.40;99.90;;;;;;5033519;28;20037;-66
2023/01/12 03:45:38;;;;;;;5.78;0.98;;;8.40;99.90;;;;;;5033534;28;20041;-66
2023/01/12 03:48:12;;;;;;;1.67;1.05;;;8.50;99.90;;;;;;5015496;28;20044;-66
2023/01/12 03:50:53;;;;;;;3.20;0.90;;;8.50;99.90;;;;;;5032002;28;20060;-66
2023/01/12 03:53:21;;;;;;;1.40;1.23;;;8.50;99.90;;;;;;5033415;28;20064;-67
2023/01/12 03:55:50;;;;;;;3.30;1.00;;;8.50;99.90;;;;;;5033350;28;20103;-66
2023/01/12 03:58:17;;;;;;;3.05;1.00;;;8.60;99.90;;;;;;5033348;28;20029;-66
2023/01/12 04:00:43;;;;;;;4.10;1.25;;;8.60;99.90;;;;;;5033243;28;20065;-66
2023/01/12 04:03:14;;;;;;;8.93;1.17;;;8.60;99.90;;;;;;5033304;28;20037;-66
2023/01/12 04:05:41;;;;;;;5.47;1.10;;;8.60;99.90;;;;;;5033339;28;20528;-67
2023/01/12 04:08:08;;;;;;;1.95;0.40;;;8.60;99.90;;;;;;5031751;28;20401;-67
2023/01/12 04:10:33;;;;;;;7.15;1.15;;;8.60;99.90;;;;;;5031646;28;20053;-66
2023/01/12 04:12:59;;;;;;;4.68;0.88;;;8.90;99.90;;;;;;5033209;28;20052;-67
2023/01/12 04:15:25;;;;;;;5.38;1.10;;;8.50;99.90;;;;;;5033200;28;20037;-67
2023/01/12 04:17:51;;;;;;;1.48;0.65;;;8.50;99.90;;;;;;5031809;28;20082;-66
2023/01/12 04:20:17;;;;;;;2.03;1.60;;;8.50;99.90;;;;;;5032227;28;20128;-67
2023/01/12 04:22:44;;;;;;;1.23;0.88;;;8.50;99.90;;;;;;5033091;28;20029;-67
2023/01/12 04:25:16;;;;;;;5.55;1.05;;;8.50;99.90;;;;;;5033031;28;20512;-67
2023/01/12 04:27:46;;;;;;;5.93;1.45;;;8.50;99.90;;;;;;5033043;28;20037;-67
2023/01/12 04:30:13;;;;;;;2.95;0.95;;;8.50;99.90;;;;;;5033010;28;20175;-66
2023/01/12 04:32:38;;;;;;;5.57;1.17;;;8.50;99.90;;;;;;5033060;28;20064;-66
2023/01/12 04:35:05;;;;;;;2.90;1.30;;;8.50;99.90;;;;;;5031452;28;20111;-67
2023/01/12 04:37:32;;;;;;;3.42;1.27;;;8.50;99.90;;;;;;5032931;28;20038;-67
2023/01/12 04:39:58;;;;;;;1.33;0.70;;;8.50;99.90;;;;;;5031389;28;20091;-67
2023/01/12 04:45:10;;;;;;;5.30;1.10;;;8.50;99.90;;;;;;5032877;28;20455;-67
2023/01/12 04:47:36;;;;;;;1.70;1.17;;;8.50;99.90;;;;;;5032892;28;20389;-67
2023/01/12 04:50:02;;;;;;;1.25;0.45;;;9.30;99.90;;;;;;5032837;28;20037;-67
2023/01/12 04:52:28;;;;;;;3.15;0.35;;;8.50;99.90;;;;;;5031568;28;20053;-67
2023/01/12 04:54:53;;;;;;;1.85;0.60;;;8.90;99.90;;;;;;5032767;28;20496;-67
2023/01/12 04:57:19;;;;;;;5.05;1.00;;;8.50;99.90;;;;;;5032748;28;20404;-67
2023/01/12 04:59:44;;;;;;;2.03;0.88;;;8.50;99.90;;;;;;5032717;28;20048;-67
2023/01/12 05:02:10;;;;;;;2.58;1.13;;;8.50;99.90;;;;;;5032719;28;20120;-68
2023/01/12 05:04:36;;;;;;;1.52;0.88;;;8.50;99.90;;;;;;5032716;28;20045;-67
2023/01/12 05:07:01;;;;;;;4.50;0.80;;;8.40;99.90;;;;;;5014717;28;20076;-67
2023/01/12 05:12:11;;;;;;;2.42;0.90;;;8.40;99.90;;;;;;5032641;28;20620;-67
2023/01/12 05:14:37;;;;;;;1.90;0.82;;;8.40;99.90;;;;;;5032561;28;20050;-67
2023/01/12 05:17:03;;;;;;;2.65;0.90;;;8.40;99.90;;;;;;5031051;28;20049;-68
2023/01/12 05:19:29;;;;;;;2.15;0.60;;;8.30;99.90;;;;;;5032532;28;20042;-67
2023/01/12 05:21:54;;;;;;;0.68;0.45;;;8.30;99.90;;;;;;5032538;28;20083;-66
2023/01/12 05:24:20;;;;;;;1.80;0.90;;;8.30;99.90;;;;;;5032308;28;20041;-66
2023/01/12 05:26:46;;;;;;;1.75;0.50;;;8.30;99.90;;;;;;5031103;28;20045;-66
2023/01/12 05:29:11;;;;;;;4.07;0.40;;;8.30;99.90;;;;;;5032496;28;20033;-67
2023/01/12 05:31:37;;;;;;;1.80;0.68;;;8.20;99.90;;;;;;5034179;28;20121;-67
2023/01/12 05:34:03;;;;;;;1.20;0.68;;;8.20;99.90;;;;;;5034425;28;20045;-66
2023/01/12 05:36:28;;;;;;;0.45;0.45;;;8.20;99.90;;;;;;5018031;28;20464;-66
2023/01/12 05:38:54;;;;;;;1.02;0.88;;;8.20;99.90;;;;;;5035498;28;20049;-66
2023/01/12 05:41:21;;;;;;;1.52;0.47;;;8.20;99.90;;;;;;5035486;28;20116;-67
2023/01/12 05:43:50;;;;;;;0.82;0.52;;;8.20;99.90;;;;;;5034226;28;20042;-67
2023/01/12 05:46:23;;;;;;;0.13;0.13;;;8.20;99.90;;;;;;5034170;28;20125;-68
2023/01/12 05:48:50;;;;;;;0.88;0.50;;;8.20;99.90;;;;;;5035373;28;20194;-66
2023/01/12 05:51:16;;;;;;;0.28;0.17;;;8.20;99.90;;;;;;5035638;28;20071;-67
2023/01/12 05:53:42;;;;;;;0.52;0.40;;;8.10;99.90;;;;;;5035560;28;20112;-67
2023/01/12 05:56:24;;;;;;;1.83;0.98;;;8.10;99.90;;;;;;5034281;28;20120;-68
2023/01/12 05:58:51;;;;;;;3.15;0.80;;;8.10;99.90;;;;;;5034191;28;20044;-67
2023/01/12 06:01:17;;;;;;;1.35;0.63;;;8.10;99.90;;;;;;5035106;28;20037;-67
2023/01/12 06:03:47;;;;;;;0.80;0.30;;;8.10;99.90;;;;;;5034074;28;20086;-68
2023/01/12 06:06:12;;;;;;;1.30;0.20;;;8.10;99.90;;;;;;5033855;28;20077;-66
2023/01/12 06:08:38;;;;;;;0.73;0.60;;;8.80;99.90;;;;;;5035268;28;20083;-68
2023/01/12 06:11:03;;;;;;;2.25;0.45;;;8.20;99.90;;;;;;5035296;28;20045;-68
2023/01/12 06:16:13;;;;;;;0.93;0.50;;;8.30;99.90;;;;;;5035192;28;20045;-66
2023/01/12 06:18:39;;;;;;;1.70;0.50;;;8.30;99.90;;;;;;5035140;28;20492;-66
2023/01/12 06:21:06;;;;;;;3.08;0.55;;;8.30;99.90;;;;;;5034774;28;20045;-66
2023/01/12 06:23:32;;;;;;;0.43;0.43;;;8.30;99.90;;;;;;5035119;28;20504;-66
2023/01/12 06:26:02;;;;;;;1.20;0.22;;;8.30;99.90;;;;;;5035093;28;20068;-66
2023/01/12 06:28:28;;;;;;;8.20;0.60;;;8.40;99.90;;;;;;5034936;28;20037;-67
2023/01/12 06:30:58;;;;;;;0.32;0.32;;;8.40;99.90;;;;;;5034902;28;20114;-66
2023/01/12 06:33:25;;;;;;;0.47;0.38;;;8.40;99.90;;;;;;5034640;28;20041;-66
2023/01/12 06:35:51;;;;;;;1.95;1.20;;;8.40;99.90;;;;;;5033310;28;20041;-67
2023/01/12 06:38:17;;;;;;;0.30;0.30;;;8.40;99.90;;;;;;5017180;28;20037;-66
2023/01/12 06:40:43;;;;;;;2.47;0.40;;;8.50;99.90;;;;;;5033178;28;20049;-65
2023/01/12 06:43:08;;;;;;;0.63;0.52;;;8.50;99.90;;;;;;5033813;28;20504;-65
2023/01/12 06:45:34;;;;;;;3.72;0.63;;;8.60;99.90;;;;;;5034701;28;20048;-67
2023/01/12 06:47:59;;;;;;;0.20;0.20;;;8.50;99.90;;;;;;5033346;28;20481;-66
2023/01/12 06:50:25;;;;;;;1.75;0.40;;;8.60;99.90;;;;;;5033110;28;20040;-66
2023/01/12 06:52:51;;;;;;;0.30;0.30;;;8.60;99.90;;;;;;5034520;28;20172;-67
2023/01/12 06:55:17;;;;;;;0.30;0.30;;;8.60;99.90;;;;;;5034431;28;20038;-66
2023/01/12 06:57:42;;;;;;;0.47;0.32;;;8.70;99.90;;;;;;5034504;28;20524;-66
2023/01/12 07:00:11;;;;;;;0.30;0.20;;;8.70;99.90;;;;;;5016422;28;20342;-66
2023/01/12 07:02:37;;;;;;;1.48;0.20;;;8.70;99.90;;;;;;5034394;28;20037;-66
2023/01/12 07:05:02;;;;;;;0.15;0.15;;;9.00;99.90;;;;;;5034291;28;20392;-66
2023/01/12 07:07:28;;;;;;;0.10;0.10;;;8.80;99.90;;;;;;5032713;28;20037;-66
2023/01/12 07:09:54;;;;;;;0.22;0.22;;;9.00;99.90;;;;;;5032539;28;20135;-66
2023/01/12 07:12:19;;;;;;;0.65;0.32;;;8.90;99.90;;;;;;5034097;28;20049;-66
2023/01/12 07:14:45;;;;;;;0.65;0.40;;;8.80;99.90;;;;;;5034074;28;20125;-67
2023/01/12 07:17:11;;;;;;;0.30;0.30;;;8.90;99.90;;;;;;5032516;28;20557;-67
2023/01/12 07:19:37;;;;;;;0.82;0.30;;;8.90;99.90;;;;;;5032597;28;20045;-66
2023/01/12 07:22:03;;;;;;;1.85;0.32;;;9.00;99.90;;;;;;5033694;28;20052;-68
2023/01/12 07:24:28;;;;;;;0.30;0.28;;;9.00;99.90;;;;;;5032681;28;20041;-66
2023/01/12 07:26:56;;;;;;;0.22;0.22;;;9.00;99.90;;;;;;5032741;28;20396;-66
2023/01/12 07:29:23;;;;;;;0.30;0.30;;;9.00;99.90;;;;;;5032323;28;20412;-66
2023/01/12 07:31:48;;;;;;;0.35;0.35;;;9.00;99.90;;;;;;5033878;28;20476;-66
2023/01/12 07:34:14;;;;;;;0.28;0.28;;;9.00;99.90;;;;;;5033436;28;20100;-66
2023/01/12 07:36:40;;;;;;;0.65;0.40;;;9.00;99.90;;;;;;5033511;28;20052;-67
2023/01/12 07:39:07;;;;;;;0.75;0.40;;;9.00;99.90;;;;;;5032094;28;20409;-66
2023/01/12 07:44:17;;;;;;;0.35;0.30;;;9.10;99.90;;;;;;5032045;28;20046;-66
2023/01/12 07:46:43;;;;;;;0.57;0.40;;;9.10;99.90;;;;;;5033584;28;20063;-66
2023/01/12 07:49:08;;;;;;;0.25;0.25;;;9.10;99.90;;;;;;5032101;28;20151;-67
2023/01/12 07:51:34;;;;;;;0.30;0.30;;;9.10;99.90;;;;;;5033239;28;20033;-68
2023/01/12 07:53:59;;;;;;;0.38;0.30;;;9.20;99.90;;;;;;5032054;28;20105;-66
2023/01/12 07:56:25;;;;;;;0.47;0.35;;;9.20;99.90;;;;;;5031838;28;20033;-66
2023/01/12 07:58:51;;;;;;;0.55;0.43;;;9.20;99.90;;;;;;5033200;28;20037;-66
2023/01/12 08:01:16;;;;;;;0.40;0.40;;;9.20;99.90;;;;;;5031766;28;20063;-67
2023/01/12 08:03:42;;;;;;;1.63;0.40;;;9.20;99.90;;;;;;5033194;28;20532;-66
2023/01/12 08:06:08;;;;;;;1.63;0.63;;;9.20;99.90;;;;;;5032869;28;20463;-67
2023/01/12 08:08:34;;;;;;;1.63;0.55;;;9.20;99.90;;;;;;5032844;28;20052;-67
2023/01/12 08:11:09;;;;;;;0.75;0.68;;;9.60;99.90;;;;;;5031705;28;20045;-67
2023/01/12 08:13:36;;;;;;;0.82;0.60;;;9.30;99.90;;;;;;5033139;28;20037;-67
2023/01/12 08:16:11;;;;;;;2.58;0.77;;;9.50;99.90;;;;;;5032790;28;20049;-66
2023/01/12 08:18:45;;;;;;;0.77;0.65;;;9.30;99.90;;;;;;5031826;28;20045;-66
2023/01/12 08:21:16;;;;;;;0.70;0.60;;;9.40;99.90;;;;;;5033050;28;20045;-66
2023/01/12 08:23:51;;;;;;;1.85;0.93;;;9.40;99.90;;;;;;5032985;28;20044;-66
2023/01/12 08:26:22;;;;;;;3.05;1.30;;;9.40;99.90;;;;;;5031787;28;20045;-66
2023/01/12 08:29:30;;;;;;;3.35;0.82;;;9.70;99.90;;;;;;5032561;28;20067;-66
2023/01/12 08:31:58;;;;;;;4.43;0.75;;;10.00;99.90;;;;;;4991167;28;20101;-67
2023/01/12 08:34:26;;;;;;;1.27;0.70;;;9.60;99.90;;;;;;5023079;28;20385;-66
2023/01/12 08:36:52;;;;;;;2.00;0.68;;;9.70;99.90;;;;;;5032900;28;20393;-67
2023/01/12 08:39:18;;;;;;;2.78;0.70;;;9.80;99.90;;;;;;5031574;28;20037;-67
2023/01/12 08:41:43;;;;;;;2.13;0.90;;;9.80;99.90;;;;;;5032905;28;20044;-67
2023/01/12 08:44:09;;;;;;;5.18;0.95;;;9.90;99.90;;;;;;5031429;28;20119;-67
2023/01/12 08:46:45;;;;;;;4.60;0.82;;;10.00;99.90;;;;;;5032877;28;20081;-67
2023/01/12 08:49:12;;;;;;;1.63;0.80;;;10.10;99.90;;;;;;5031251;28;20037;-66
2023/01/12 08:51:39;;;;;;;5.22;1.33;;;10.10;99.90;;;;;;5031541;28;20045;-66
2023/01/12 08:54:06;;;;;;;4.03;0.73;;;10.10;99.90;;;;;;5031146;28;20041;-67
2023/01/12 08:56:32;;;;;;;6.80;1.08;;;10.60;99.90;;;;;;5031575;28;20083;-67
2023/01/12 08:58:58;;;;;;;3.42;0.98;;;10.30;99.90;;;;;;5031471;28;20064;-67
2023/01/12 09:01:23;;;;;;;9.80;1.45;;;10.30;99.90;;;;;;5032743;28;20029;-67
2023/01/12 09:03:49;;;;;;;5.30;0.80;;;10.40;99.90;;;;;;5032713;28;20052;-66
2023/01/12 09:06:22;;;;;;;6.07;1.67;;;10.40;99.90;;;;;;5035186;28;20048;-66
2023/01/12 09:08:53;;;;;;;8.85;1.30;;;10.40;99.90;;;;;;5036078;28;20121;-68
2023/01/12 09:11:19;;;;;;;6.93;1.23;;;10.50;99.90;;;;;;5036491;28;20179;-66
2023/01/12 09:13:44;;;;;;;6.43;1.55;;;10.50;99.90;;;;;;5036395;28;20037;-67
2023/01/12 09:16:13;;;;;;;4.05;1.10;;;10.50;99.90;;;;;;5036076;28;20562;-67
2023/01/12 09:18:40;;;;;;;3.53;1.42;;;10.60;99.90;;;;;;5035036;28;20045;-66
2023/01/12 09:21:11;;;;;;;6.38;1.00;;;10.60;99.90;;;;;;5036193;28;20477;-66
2023/01/12 09:23:37;;;;;;;;;;;10.60;99.90;;;;;;5036598;28;20088;-66
2023/01/12 09:26:10;;;;;;;4.15;1.10;;;10.60;99.90;;;;;;5018159;28;20364;-66
2023/01/12 09:28:36;;;;;;;10.85;1.00;;;10.70;99.90;;;;;;5036241;28;20429;-66
2023/01/12 09:31:07;;;;;;;6.95;1.42;;;10.70;99.90;;;;;;5035800;28;20041;-66
2023/01/12 09:33:34;;;;;;;7.60;2.25;;;10.70;99.90;;;;;;5036038;28;20453;-66
2023/01/12 09:36:02;;;;;;;2.55;0.88;;;10.70;99.90;;;;;;5034461;28;20048;-66
2023/01/12 09:38:28;;;;;;;10.07;1.52;;;10.80;99.90;;;;;;5035653;28;20038;-66
2023/01/12 09:41:00;;;;;;;6.28;1.35;;;10.80;99.90;;;;;;5035832;28;20055;-66
2023/01/12 09:49:08;;;;;;;2.33;0.93;;;11.10;99.90;;;;;;5035744;28;20417;-66
2023/01/12 09:51:49;;;;;;;2.17;0.80;;;10.80;99.90;;;;;;5035725;28;20080;-66
2023/01/12 09:54:15;;;;;;;2.40;0.95;;;10.80;99.90;;;;;;5017730;28;20041;-66
2023/01/12 09:56:59;;;;;;;9.63;1.48;;;10.90;99.90;;;;;;5035664;28;20389;-66
2023/01/12 09:59:55;;;;;;;2.70;0.88;;;10.90;99.90;;;;;;5035461;28;20038;-66
2023/01/12 10:02:21;;;;;;;4.20;0.93;;;11.00;99.90;;;;;;5034151;28;20061;-66
2023/01/12 10:04:49;;;;;;;3.97;0.73;;;11.00;99.90;;;;;;5035511;28;20038;-67
2023/01/12 10:07:17;;;;;;;5.93;1.33;;;11.00;99.90;;;;;;5033892;28;20041;-66
2023/01/12 10:09:43;;;;;;;5.72;1.25;;;10.90;99.90;;;;;;5033731;28;20049;-66
2023/01/12 10:12:28;;;;;;;8.15;1.33;;;10.90;99.90;;;;;;5035301;28;20107;-66
2023/01/12 10:15:03;;;;;;;2.25;1.60;;;10.90;99.90;;;;;;5034976;28;20052;-66
2023/01/12 10:17:40;;;;;;;5.68;1.15;;;10.90;99.90;;;;;;5033979;28;20099;-65
2023/01/12 10:20:27;;;;;;;8.52;1.20;;;11.00;99.90;;;;;;5035038;28;20048;-66
2023/01/12 10:23:06;;;;;;;5.68;0.60;;;11.10;99.90;;;;;;5035078;28;20132;-66
2023/01/12 10:25:48;;;;;;;6.57;1.08;;;11.10;99.90;;;;;;5035125;28;20038;-65
2023/01/12 10:28:22;;;;;;;5.43;1.30;;;11.10;99.90;;;;;;5034972;28;20041;-65
2023/01/12 10:30:47;;;;;;;3.33;1.10;;;11.10;99.90;;;;;;5035000;28;20091;-65
2023/01/12 10:33:15;;;;;;;6.03;1.42;;;11.10;99.90;;;;;;5034652;28;20485;-65
2023/01/12 10:35:51;;;;;;;6.18;1.63;;;11.20;99.90;;;;;;5033429;28;20037;-66
2023/01/12 10:38:33;;;;;;;9.20;1.33;;;11.20;99.90;;;;;;5034470;28;20037;-65
2023/01/12 10:41:12;;;;;;;5.50;1.55;;;11.20;99.90;;;;;;5034704;28;20037;-65
2023/01/12 10:43:40;;;;;;;4.65;1.20;;;11.30;99.90;;;;;;5034782;28;20037;-66
2023/01/12 10:46:13;;;;;;;9.88;1.58;;;12.00;99.90;;;;;;5034712;28;20112;-65
2023/01/12 10:48:44;;;;;;;5.07;1.33;;;11.40;99.90;;;;;;5033190;28;20073;-66
2023/01/12 10:51:23;;;;;;;5.82;0.95;;;11.40;99.90;;;;;;5034337;28;20045;-65
2023/01/12 10:54:17;;;;;;;5.05;1.15;;;11.40;99.90;;;;;;5034502;28;20119;-66
2023/01/12 10:57:13;;;;;;;2.95;0.90;;;11.40;99.90;;;;;;5033859;28;20057;-65
2023/01/12 10:59:40;;;;;;;4.95;1.02;;;11.50;99.90;;;;;;5034394;28;20484;-66
2023/01/12 11:02:06;;;;;;;6.85;1.85;;;11.50;99.90;;;;;;5034032;28;20083;-65
2023/01/12 11:04:51;;;;;;;4.57;1.15;;;11.40;99.90;;;;;;5032834;28;20041;-65
2023/01/12 11:07:24;;;;;;;1.48;0.52;;;11.50;99.90;;;;;;5032774;28;20072;-65
2023/01/12 11:09:50;;;;;;;4.50;1.92;;;11.40;99.90;;;;;;5033847;28;20096;-66
2023/01/12 11:12:22;;;;;;;7.00;1.67;;;11.50;99.90;;;;;;5032593;28;20091;-66
2023/01/12 11:15:10;;;;;;;3.05;0.98;;;11.50;99.90;;;;;;5032966;28;20392;-65
2023/01/12 11:18:00;;;;;;;5.88;1.20;;;11.50;99.90;;;;;;5032535;28;20041;-65
2023/01/12 11:20:51;;;;;;;4.68;1.35;;;11.50;99.90;;;;;;5032422;28;20124;-65
2023/01/12 11:23:19;;;;;;;5.07;1.10;;;11.60;99.90;;;;;;5032692;28;20084;-65
2023/01/12 11:25:46;;;;;;;5.03;1.05;;;11.50;99.90;;;;;;5033944;28;20065;-65
2023/01/12 11:28:22;;;;;;;2.78;0.30;;;11.60;99.90;;;;;;5033476;28;20499;-65
2023/01/12 11:31:11;;;;;;;4.22;0.95;;;11.60;99.90;;;;;;5033921;28;20033;-65
2023/01/12 11:33:56;;;;;;;6.18;1.10;;;11.60;99.90;;;;;;5033522;28;20044;-65
2023/01/12 11:36:33;;;;;;;6.38;1.45;;;11.60;99.90;;;;;;5033756;28;20091;-65
2023/01/12 11:39:06;;;;;;;5.70;0.88;;;11.50;99.90;;;;;;5032428;28;20141;-65
2023/01/12 11:44:57;;;;;;;6.25;1.50;;;11.50;99.90;;;;;;5033390;28;20511;-65
2023/01/12 11:47:33;;;;;;;4.40;0.88;;;11.50;99.90;;;;;;5032292;28;20037;-65
2023/01/12 11:50:27;;;;;;;5.15;1.13;;;11.60;99.90;;;;;;5033209;28;20058;-65
2023/01/12 11:52:55;;;;;;;6.57;1.38;;;11.60;99.90;;;;;;5033484;28;20489;-65
2023/01/12 11:55:45;;;;;;;6.10;1.45;;;11.60;99.90;;;;;;5033407;28;20453;-65
2023/01/12 11:58:16;;;;;;;4.03;1.30;;;11.60;99.90;;;;;;5033440;28;20400;-65
2023/01/12 12:00:53;;;;;;;6.00;0.85;;;11.80;99.90;;;;;;5033308;28;20042;-64
2023/01/12 12:03:35;;;;;;;7.07;1.15;;;11.70;99.90;;;;;;5033299;28;20038;-65
2023/01/12 12:06:24;;;;;;;9.20;1.60;;;11.60;99.90;;;;;;5033259;28;20059;-65
2023/01/12 12:09:23;;;;;;;8.02;1.10;;;11.60;99.90;;;;;;5031754;28;20049;-65
2023/01/12 12:12:31;;;;;;;1.55;0.77;;;11.60;99.90;;;;;;5033210;28;20045;-65
2023/01/12 12:15:08;;;;;;;1.35;0.85;;;11.60;99.90;;;;;;5032480;28;20049;-65
2023/01/12 12:18:21;;;;;;;5.15;0.88;;;11.60;99.90;;;;;;5033148;28;20504;-65
2023/01/12 12:21:05;;;;;;;9.98;1.25;;;11.60;99.90;;;;;;5001432;28;20088;-65
2023/01/12 12:23:45;;;;;;;5.85;1.05;;;11.80;99.90;;;;;;5032804;28;20037;-65
2023/01/12 12:26:37;;;;;;;2.75;1.00;;;11.60;99.90;;;;;;5032825;28;20096;-65
2023/01/12 12:29:32;;;;;;;4.68;0.88;;;11.50;99.90;;;;;;5030589;28;20049;-65
2023/01/12 12:32:17;;;;;;;2.15;0.90;;;11.50;99.90;;;;;;5018867;28;20041;-65
2023/01/12 12:35:17;;;;;;;6.20;1.27;;;11.50;99.90;;;;;;5032943;28;20112;-65
2023/01/12 12:38:07;;;;;;;1.75;0.95;;;11.50;99.90;;;;;;5032775;28;20492;-65
2023/01/12 12:46:47;;;;;;;4.25;1.17;;;11.40;99.90;;;;;;5035406;28;20056;-65
2023/01/12 12:49:21;;;;;;;5.00;0.68;;;11.20;99.90;;;;;;5036850;28;20045;-65
2023/01/12 12:51:48;;;;;;;5.72;0.80;;;11.20;99.90;;;;;;5036535;28;20088;-65
2023/01/12 12:54:19;;;;;;;5.47;1.00;;;11.10;99.90;;;;;;5036819;28;20467;-65
2023/01/12 12:56:46;;;;;;;7.55;1.48;;;11.10;99.90;;;;;;5035278;28;20037;-65
2023/01/12 12:59:30;;;;;;;5.45;1.00;;;11.10;99.90;;;;;;5036597;28;20038;-65
2023/01/12 13:01:59;;;;;;;9.18;1.20;;;11.00;99.90;;;;;;5035273;28;20045;-65
2023/01/12 13:04:48;;;;;;;6.63;1.20;;;11.10;99.90;;;;;;5035044;28;20041;-65
2023/01/12 13:07:18;;;;;;;3.78;0.98;;;11.00;99.90;;;;;;5036133;28;20037;-65
2023/01/12 13:09:45;;;;;;;2.43;0.77;;;11.10;99.90;;;;;;5036151;28;20125;-65
2023/01/12 13:12:28;;;;;;;8.50;1.02;;;11.20;99.90;;;;;;5036449;28;20049;-65
2023/01/12 13:15:21;;;;;;;9.60;1.63;;;11.10;99.90;;;;;;5034917;28;20049;-65
2023/01/12 13:17:49;;;;;;;4.47;1.45;;;11.10;99.90;;;;;;5035137;28;20038;-65
2023/01/12 13:20:14;;;;;;;4.03;1.05;;;11.10;99.90;;;;;;5035987;28;20045;-65
2023/01/12 13:22:47;;;;;;;4.95;1.05;;;11.10;99.90;;;;;;5035949;28;20044;-65
2023/01/12 13:25:19;;;;;;;11.52;1.20;;;11.10;99.90;;;;;;5034989;28;20045;-65
2023/01/12 13:27:59;;;;;;;6.05;1.80;;;11.10;99.90;;;;;;5036120;28;20455;-65
2023/01/12 13:30:25;;;;;;;6.70;1.23;;;11.10;99.90;;;;;;5035877;28;20085;-65
2023/01/12 13:32:54;;;;;;;8.00;1.10;;;11.10;99.90;;;;;;5035726;28;20083;-65
2023/01/12 13:35:34;;;;;;;3.70;1.20;;;11.10;99.90;;;;;;5034722;28;20053;-64
2023/01/12 13:38:17;;;;;;;7.43;1.90;;;11.10;99.90;;;;;;5034880;28;20042;-65
2023/01/12 13:40:43;;;;;;;5.47;1.52;;;11.20;99.90;;;;;;5035543;28;20052;-65
2023/01/12 13:43:29;;;;;;;3.25;1.55;;;11.20;99.90;;;;;;5034294;28;20080;-65
2023/01/12 13:46:14;;;;;;;12.52;1.80;;;11.20;99.90;;;;;;5035840;28;20041;-66
2023/01/12 13:48:44;;;;;;;2.90;0.90;;;11.70;99.90;;;;;;5035778;28;20041;-65
2023/01/12 13:51:37;;;;;;;3.13;1.25;;;11.30;99.90;;;;;;5035544;28;20073;-66
2023/01/12 13:54:12;;;;;;;5.63;1.60;;;11.30;99.90;;;;;;5030154;28;20045;-65